sensor_id;sensor_type;location;lat;lon;timestamp;pressure;altitude;pressure_sealevel;temperature;humidity
70302;BME280;57706;56.326;43.882;2023-03-08T00:01:13;99500.00;;;-2.24;78.33
70302;BME280;57706;56.326;43.882;2023-03-08T00:03:39;99496.59;;;-2.25;78.87
70302;BME280;57706;56.326;43.882;2023-03-08T00:06:11;99496.50;;;-2.36;78.82
70302;BME280;57706;56.326;43.882;2023-03-08T00:08:37;99488.25;;;-2.41;79.44
70302;BME280;57706;56.326;43.882;2023-03-08T00:11:05;99497.81;;;-2.43;79.01
70302;BME280;57706;56.326;43.882;2023-03-08T00:13:31;99494.50;;;-2.45;79.21
70302;BME280;57706;56.326;43.882;2023-03-08T00:16:06;99496.38;;;-2.47;79.30
70302;BME280;57706;56.326;43.882;2023-03-08T00:18:33;99490.59;;;-2.38;79.56
70302;BME280;57706;56.326;43.882;2023-03-08T00:21:20;99498.47;;;-2.27;79.96
70302;BME280;57706;56.326;43.882;2023-03-08T00:23:46;99491.66;;;-2.28;79.21
70302;BME280;57706;56.326;43.882;2023-03-08T00:26:12;99487.94;;;-2.24;79.23
70302;BME280;57706;56.326;43.882;2023-03-08T00:28:38;99492.06;;;-2.34;78.36
70302;BME280;57706;56.326;43.882;2023-03-08T00:31:06;99494.03;;;-2.25;79.22
70302;BME280;57706;56.326;43.882;2023-03-08T00:33:33;99489.19;;;-2.16;79.32
70302;BME280;57706;56.326;43.882;2023-03-08T00:36:09;99495.78;;;-2.12;79.52
70302;BME280;57706;56.326;43.882;2023-03-08T00:38:37;99493.94;;;-2.10;79.05
70302;BME280;57706;56.326;43.882;2023-03-08T00:41:03;99488.16;;;-2.01;79.35
70302;BME280;57706;56.326;43.882;2023-03-08T00:43:31;99484.66;;;-2.00;78.79
70302;BME280;57706;56.326;43.882;2023-03-08T00:45:57;99484.88;;;-2.03;78.81
70302;BME280;57706;56.326;43.882;2023-03-08T00:48:23;99486.09;;;-2.09;77.65
70302;BME280;57706;56.326;43.882;2023-03-08T00:50:51;99484.03;;;-2.16;77.57
70302;BME280;57706;56.326;43.882;2023-03-08T00:53:17;99479.13;;;-2.06;77.97
70302;BME280;57706;56.326;43.882;2023-03-08T00:55:51;99490.44;;;-2.09;77.84
70302;BME280;57706;56.326;43.882;2023-03-08T00:58:17;99487.34;;;-2.14;77.53
70302;BME280;57706;56.326;43.882;2023-03-08T01:00:43;99483.41;;;-2.33;77.49
70302;BME280;57706;56.326;43.882;2023-03-08T01:03:09;99487.84;;;-2.35;77.19
70302;BME280;57706;56.326;43.882;2023-03-08T01:05:40;99488.34;;;-2.30;77.35
70302;BME280;57706;56.326;43.882;2023-03-08T01:08:06;99494.97;;;-2.26;77.52
70302;BME280;57706;56.326;43.882;2023-03-08T01:10:32;99491.47;;;-2.25;77.16
70302;BME280;57706;56.326;43.882;2023-03-08T01:12:59;99490.63;;;-2.12;77.61
70302;BME280;57706;56.326;43.882;2023-03-08T01:15:24;99491.38;;;-2.23;76.64
70302;BME280;57706;56.326;43.882;2023-03-08T01:17:50;99492.28;;;-2.11;77.58
70302;BME280;57706;56.326;43.882;2023-03-08T01:20:16;99494.34;;;-2.16;76.77
70302;BME280;57706;56.326;43.882;2023-03-08T01:22:42;99497.41;;;-2.37;76.52
70302;BME280;57706;56.326;43.882;2023-03-08T01:25:08;99498.47;;;-2.27;77.08
70302;BME280;57706;56.326;43.882;2023-03-08T01:27:34;99506.28;;;-2.15;77.36
70302;BME280;57706;56.326;43.882;2023-03-08T01:30:00;99500.22;;;-2.14;76.91
70302;BME280;57706;56.326;43.882;2023-03-08T01:32:26;99505.88;;;-2.09;76.68
70302;BME280;57706;56.326;43.882;2023-03-08T01:34:52;99499.19;;;-2.12;76.29
70302;BME280;57706;56.326;43.882;2023-03-08T01:37:18;99501.13;;;-2.15;76.06
70302;BME280;57706;56.326;43.882;2023-03-08T01:39:44;99511.22;;;-2.12;76.74
70302;BME280;57706;56.326;43.882;2023-03-08T01:42:10;99511.66;;;-2.31;76.10
70302;BME280;57706;56.326;43.882;2023-03-08T01:44:55;99522.25;;;-2.36;76.42
70302;BME280;57706;56.326;43.882;2023-03-08T01:47:24;99516.25;;;-2.37;77.11
70302;BME280;57706;56.326;43.882;2023-03-08T01:50:10;99521.47;;;-2.51;76.67
70302;BME280;57706;56.326;43.882;2023-03-08T01:52:44;99523.88;;;-2.35;77.11
70302;BME280;57706;56.326;43.882;2023-03-08T01:55:14;99531.19;;;-2.29;76.74
70302;BME280;57706;56.326;43.882;2023-03-08T01:57:43;99527.72;;;-2.28;76.65
70302;BME280;57706;56.326;43.882;2023-03-08T02:00:20;99540.72;;;-2.57;76.87
70302;BME280;57706;56.326;43.882;2023-03-08T02:03:04;99536.09;;;-2.52;76.96
70302;BME280;57706;56.326;43.882;2023-03-08T02:05:33;99543.94;;;-2.40;76.82
70302;BME280;57706;56.326;43.882;2023-03-08T02:08:08;99545.72;;;-2.41;76.21
70302;BME280;57706;56.326;43.882;2023-03-08T02:10:37;99547.50;;;-2.56;76.23
70302;BME280;57706;56.326;43.882;2023-03-08T02:13:23;99545.97;;;-2.45;76.52
70302;BME280;57706;56.326;43.882;2023-03-08T02:15:50;99554.22;;;-2.53;75.55
70302;BME280;57706;56.326;43.882;2023-03-08T02:18:22;99562.09;;;-2.69;75.89
70302;BME280;57706;56.326;43.882;2023-03-08T02:20:48;99557.28;;;-2.61;76.75
70302;BME280;57706;56.326;43.882;2023-03-08T02:23:22;99561.97;;;-2.68;75.71
70302;BME280;57706;56.326;43.882;2023-03-08T02:25:54;99563.53;;;-2.65;76.06
70302;BME280;57706;56.326;43.882;2023-03-08T02:28:23;99564.25;;;-2.63;76.22
70302;BME280;57706;56.326;43.882;2023-03-08T02:30:52;99556.03;;;-2.68;75.99
70302;BME280;57706;56.326;43.882;2023-03-08T02:33:18;99559.22;;;-2.92;75.32
70302;BME280;57706;56.326;43.882;2023-03-08T02:35:44;99564.31;;;-3.05;75.69
70302;BME280;57706;56.326;43.882;2023-03-08T02:38:13;99573.31;;;-3.12;76.14
70302;BME280;57706;56.326;43.882;2023-03-08T02:40:39;99573.97;;;-3.38;75.49
70302;BME280;57706;56.326;43.882;2023-03-08T02:43:05;99582.50;;;-3.52;76.16
70302;BME280;57706;56.326;43.882;2023-03-08T02:45:32;99600.56;;;-3.82;76.55
70302;BME280;57706;56.326;43.882;2023-03-08T02:48:04;99599.06;;;-4.01;77.23
70302;BME280;57706;56.326;43.882;2023-03-08T02:50:30;99604.06;;;-4.14;77.46
70302;BME280;57706;56.326;43.882;2023-03-08T02:52:57;99601.94;;;-4.22;78.08
70302;BME280;57706;56.326;43.882;2023-03-08T02:55:24;99599.75;;;-4.44;78.50
70302;BME280;57706;56.326;43.882;2023-03-08T02:57:50;99616.00;;;-4.29;78.22
70302;BME280;57706;56.326;43.882;2023-03-08T03:00:18;99621.91;;;-4.43;78.85
70302;BME280;57706;56.326;43.882;2023-03-08T03:02:44;99609.16;;;-4.45;79.53
70302;BME280;57706;56.326;43.882;2023-03-08T03:05:10;99612.78;;;-4.33;79.74
70302;BME280;57706;56.326;43.882;2023-03-08T03:07:39;99611.47;;;-4.24;79.23
70302;BME280;57706;56.326;43.882;2023-03-08T03:10:10;99611.13;;;-4.34;78.35
70302;BME280;57706;56.326;43.882;2023-03-08T03:12:36;99607.91;;;-4.37;78.41
70302;BME280;57706;56.326;43.882;2023-03-08T03:15:07;99611.53;;;-4.72;78.66
70302;BME280;57706;56.326;43.882;2023-03-08T03:17:34;99604.34;;;-4.81;79.16
70302;BME280;57706;56.326;43.882;2023-03-08T03:20:03;99611.53;;;-4.88;79.41
70302;BME280;57706;56.326;43.882;2023-03-08T03:22:31;99615.31;;;-4.95;79.23
70302;BME280;57706;56.326;43.882;2023-03-08T03:24:57;99615.50;;;-4.99;78.85
70302;BME280;57706;56.326;43.882;2023-03-08T03:27:23;99621.19;;;-5.09;79.03
70302;BME280;57706;56.326;43.882;2023-03-08T03:29:49;99623.38;;;-5.19;79.22
70302;BME280;57706;56.326;43.882;2023-03-08T03:32:16;99629.00;;;-5.29;79.43
70302;BME280;57706;56.326;43.882;2023-03-08T03:34:42;99621.41;;;-5.30;79.76
70302;BME280;57706;56.326;43.882;2023-03-08T03:37:09;99625.25;;;-5.39;79.80
70302;BME280;57706;56.326;43.882;2023-03-08T03:39:38;99625.88;;;-5.34;80.08
70302;BME280;57706;56.326;43.882;2023-03-08T03:42:06;99629.16;;;-5.32;79.72
70302;BME280;57706;56.326;43.882;2023-03-08T03:44:33;99628.72;;;-5.40;80.19
70302;BME280;57706;56.326;43.882;2023-03-08T03:47:00;99628.78;;;-5.42;79.83
70302;BME280;57706;56.326;43.882;2023-03-08T03:49:27;99627.22;;;-5.44;80.25
70302;BME280;57706;56.326;43.882;2023-03-08T03:51:53;99635.53;;;-5.57;80.88
70302;BME280;57706;56.326;43.882;2023-03-08T03:54:24;99630.34;;;-5.55;81.15
70302;BME280;57706;56.326;43.882;2023-03-08T03:56:50;99637.63;;;-5.47;80.57
70302;BME280;57706;56.326;43.882;2023-03-08T03:59:20;99633.13;;;-5.42;80.56
70302;BME280;57706;56.326;43.882;2023-03-08T04:01:46;99640.69;;;-5.41;80.22
70302;BME280;57706;56.326;43.882;2023-03-08T04:04:23;99645.44;;;-5.33;79.74
70302;BME280;57706;56.326;43.882;2023-03-08T04:06:51;99649.50;;;-5.29;80.27
70302;BME280;57706;56.326;43.882;2023-03-08T04:09:21;99656.94;;;-5.24;79.71
70302;BME280;57706;56.326;43.882;2023-03-08T04:11:55;99657.59;;;-5.20;79.63
70302;BME280;57706;56.326;43.882;2023-03-08T04:14:22;99664.25;;;-5.16;78.91
70302;BME280;57706;56.326;43.882;2023-03-08T04:16:50;99663.94;;;-5.10;78.96
70302;BME280;57706;56.326;43.882;2023-03-08T04:19:24;99674.50;;;-5.00;79.41
70302;BME280;57706;56.326;43.882;2023-03-08T04:21:53;99676.09;;;-4.98;78.71
70302;BME280;57706;56.326;43.882;2023-03-08T04:24:22;99686.59;;;-4.86;79.24
70302;BME280;57706;56.326;43.882;2023-03-08T04:26:51;99684.31;;;-4.75;78.38
70302;BME280;57706;56.326;43.882;2023-03-08T04:29:19;99685.47;;;-4.64;77.94
70302;BME280;57706;56.326;43.882;2023-03-08T04:31:45;99681.69;;;-4.57;78.12
70302;BME280;57706;56.326;43.882;2023-03-08T04:34:14;99682.34;;;-4.53;77.59
70302;BME280;57706;56.326;43.882;2023-03-08T04:36:40;99694.75;;;-4.46;77.55
70302;BME280;57706;56.326;43.882;2023-03-08T04:39:07;99688.03;;;-4.32;76.88
70302;BME280;57706;56.326;43.882;2023-03-08T04:41:34;99700.19;;;-4.20;76.62
70302;BME280;57706;56.326;43.882;2023-03-08T04:44:08;99701.00;;;-4.03;76.37
70302;BME280;57706;56.326;43.882;2023-03-08T04:46:39;99704.22;;;-3.99;76.35
70302;BME280;57706;56.326;43.882;2023-03-08T04:49:06;99708.75;;;-3.89;75.93
70302;BME280;57706;56.326;43.882;2023-03-08T04:51:38;99714.03;;;-3.76;75.79
70302;BME280;57706;56.326;43.882;2023-03-08T04:54:06;99732.41;;;-3.67;75.39
70302;BME280;57706;56.326;43.882;2023-03-08T04:56:35;99729.88;;;-3.53;75.20
70302;BME280;57706;56.326;43.882;2023-03-08T04:59:01;99735.78;;;-3.36;75.04
70302;BME280;57706;56.326;43.882;2023-03-08T05:01:27;99743.53;;;-3.22;74.22
70302;BME280;57706;56.326;43.882;2023-03-08T05:03:54;99742.00;;;-3.10;73.81
70302;BME280;57706;56.326;43.882;2023-03-08T05:06:26;99740.59;;;-3.01;72.87
70302;BME280;57706;56.326;43.882;2023-03-08T05:08:53;99741.97;;;-2.81;73.27
70302;BME280;57706;56.326;43.882;2023-03-08T05:11:24;99748.22;;;-2.70;72.18
70302;BME280;57706;56.326;43.882;2023-03-08T05:13:53;99758.78;;;-2.60;72.23
70302;BME280;57706;56.326;43.882;2023-03-08T05:16:20;99756.84;;;-2.42;71.90
70302;BME280;57706;56.326;43.882;2023-03-08T05:18:46;99753.78;;;-2.35;71.16
70302;BME280;57706;56.326;43.882;2023-03-08T05:21:19;99764.34;;;-2.25;70.29
70302;BME280;57706;56.326;43.882;2023-03-08T05:23:50;99772.69;;;-2.06;70.52
70302;BME280;57706;56.326;43.882;2023-03-08T05:26:18;99767.09;;;-1.86;70.15
70302;BME280;57706;56.326;43.882;2023-03-08T05:28:44;99768.44;;;-1.80;69.29
70302;BME280;57706;56.326;43.882;2023-03-08T05:33:37;99768.75;;;-1.44;68.54
70302;BME280;57706;56.326;43.882;2023-03-08T05:36:05;99770.13;;;-1.26;67.55
70302;BME280;57706;56.326;43.882;2023-03-08T05:38:32;99777.47;;;-1.06;67.19
70302;BME280;57706;56.326;43.882;2023-03-08T05:41:05;99783.06;;;-0.87;67.15
70302;BME280;57706;56.326;43.882;2023-03-08T05:43:32;99785.50;;;-0.72;66.71
70302;BME280;57706;56.326;43.882;2023-03-08T05:46:07;99790.03;;;-0.63;66.25
70302;BME280;57706;56.326;43.882;2023-03-08T05:48:37;99798.00;;;-0.53;65.82
70302;BME280;57706;56.326;43.882;2023-03-08T05:51:04;99805.09;;;-0.44;65.28
70302;BME280;57706;56.326;43.882;2023-03-08T05:53:31;99806.72;;;-0.30;65.49
70302;BME280;57706;56.326;43.882;2023-03-08T05:58:37;99819.47;;;-0.02;64.07
70302;BME280;57706;56.326;43.882;2023-03-08T06:01:15;99822.84;;;0.11;63.79
70302;BME280;57706;56.326;43.882;2023-03-08T06:03:44;99827.03;;;0.25;63.64
70302;BME280;57706;56.326;43.882;2023-03-08T06:06:11;99833.19;;;0.36;62.52
70302;BME280;57706;56.326;43.882;2023-03-08T06:08:37;99833.31;;;0.59;62.49
70302;BME280;57706;56.326;43.882;2023-03-08T06:11:05;99828.91;;;0.72;61.44
70302;BME280;57706;56.326;43.882;2023-03-08T06:13:31;99837.97;;;0.78;61.48
70302;BME280;57706;56.326;43.882;2023-03-08T06:15:58;99837.66;;;0.94;61.07
70302;BME280;57706;56.326;43.882;2023-03-08T06:18:25;99840.28;;;1.05;60.20
70302;BME280;57706;56.326;43.882;2023-03-08T06:21:12;99844.31;;;1.21;60.11
70302;BME280;57706;56.326;43.882;2023-03-08T06:23:40;99844.34;;;1.67;58.81
70302;BME280;57706;56.326;43.882;2023-03-08T06:26:08;99852.78;;;2.03;57.19
70302;BME280;57706;56.326;43.882;2023-03-08T06:28:37;99849.31;;;2.37;55.24
70302;BME280;57706;56.326;43.882;2023-03-08T06:31:06;99858.41;;;2.96;55.69
70302;BME280;57706;56.326;43.882;2023-03-08T06:33:33;99854.41;;;3.66;55.62
70302;BME280;57706;56.326;43.882;2023-03-08T06:36:13;99846.53;;;4.87;53.26
70302;BME280;57706;56.326;43.882;2023-03-08T06:38:40;99843.00;;;8.23;46.77
70302;BME280;57706;56.326;43.882;2023-03-08T06:41:07;99843.16;;;12.67;37.51
70302;BME280;57706;56.326;43.882;2023-03-08T06:43:34;99843.94;;;15.77;29.78
70302;BME280;57706;56.326;43.882;2023-03-08T06:46:05;99843.03;;;18.06;27.49
70302;BME280;57706;56.326;43.882;2023-03-08T06:48:33;99847.69;;;20.01;24.95
70302;BME280;57706;56.326;43.882;2023-03-08T06:50:59;99840.28;;;21.45;22.68
70302;BME280;57706;56.326;43.882;2023-03-08T06:53:25;99831.34;;;22.07;21.92
70302;BME280;57706;56.326;43.882;2023-03-08T06:55:55;99834.75;;;23.48;20.38
70302;BME280;57706;56.326;43.882;2023-03-08T06:58:22;99832.53;;;24.87;18.67
70302;BME280;57706;56.326;43.882;2023-03-08T07:00:48;99833.84;;;25.71;17.89
70302;BME280;57706;56.326;43.882;2023-03-08T07:03:14;99828.69;;;26.20;15.95
70302;BME280;57706;56.326;43.882;2023-03-08T07:05:41;99823.09;;;27.05;16.99
70302;BME280;57706;56.326;43.882;2023-03-08T07:08:07;99816.38;;;27.02;16.56
70302;BME280;57706;56.326;43.882;2023-03-08T07:10:33;99820.44;;;28.06;15.97
70302;BME280;57706;56.326;43.882;2023-03-08T07:12:59;99806.31;;;28.90;15.10
70302;BME280;57706;56.326;43.882;2023-03-08T07:15:25;99819.19;;;27.98;15.15
70302;BME280;57706;56.326;43.882;2023-03-08T07:17:53;99812.69;;;29.50;14.37
70302;BME280;57706;56.326;43.882;2023-03-08T07:20:24;99813.81;;;29.35;13.91
70302;BME280;57706;56.326;43.882;2023-03-08T07:22:50;99816.94;;;30.02;12.12
70302;BME280;57706;56.326;43.882;2023-03-08T07:25:18;99814.25;;;28.39;12.69
70302;BME280;57706;56.326;43.882;2023-03-08T07:27:45;99821.31;;;27.82;13.82
70302;BME280;57706;56.326;43.882;2023-03-08T07:30:12;99815.03;;;30.48;12.18
70302;BME280;57706;56.326;43.882;2023-03-08T07:32:39;99815.09;;;32.56;11.62
70302;BME280;57706;56.326;43.882;2023-03-08T07:35:09;99805.16;;;33.93;10.42
70302;BME280;57706;56.326;43.882;2023-03-08T07:37:35;99802.38;;;35.51;10.13
70302;BME280;57706;56.326;43.882;2023-03-08T07:40:02;99802.03;;;34.87;10.26
70302;BME280;57706;56.326;43.882;2023-03-08T07:42:30;99795.94;;;36.01;10.17
70302;BME280;57706;56.326;43.882;2023-03-08T07:45:01;99809.63;;;36.97;9.63
70302;BME280;57706;56.326;43.882;2023-03-08T07:47:29;99811.28;;;36.66;9.08
70302;BME280;57706;56.326;43.882;2023-03-08T07:49:55;99811.19;;;36.02;9.04
70302;BME280;57706;56.326;43.882;2023-03-08T07:52:26;99804.31;;;37.40;8.28
70302;BME280;57706;56.326;43.882;2023-03-08T07:54:52;99811.19;;;37.70;8.58
70302;BME280;57706;56.326;43.882;2023-03-08T07:57:18;99804.97;;;37.33;8.24
70302;BME280;57706;56.326;43.882;2023-03-08T07:59:43;99812.16;;;37.81;7.70
70302;BME280;57706;56.326;43.882;2023-03-08T08:02:13;99812.94;;;37.42;7.59
70302;BME280;57706;56.326;43.882;2023-03-08T08:04:39;99808.94;;;38.65;7.46
70302;BME280;57706;56.326;43.882;2023-03-08T08:07:09;99808.84;;;36.48;8.11
70302;BME280;57706;56.326;43.882;2023-03-08T08:09:36;99822.81;;;32.54;10.29
70302;BME280;57706;56.326;43.882;2023-03-08T08:12:03;99829.13;;;32.76;10.20
70302;BME280;57706;56.326;43.882;2023-03-08T08:14:28;99830.44;;;34.15;9.31
70302;BME280;57706;56.326;43.882;2023-03-08T08:16:54;99826.38;;;31.40;10.62
70302;BME280;57706;56.326;43.882;2023-03-08T08:19:20;99829.44;;;31.56;10.49
70302;BME280;57706;56.326;43.882;2023-03-08T08:21:46;99835.31;;;31.49;10.36
70302;BME280;57706;56.326;43.882;2023-03-08T08:24:12;99837.16;;;33.32;9.41
70302;BME280;57706;56.326;43.882;2023-03-08T08:26:38;99845.19;;;33.29;9.35
70302;BME280;57706;56.326;43.882;2023-03-08T08:29:04;99844.28;;;29.12;11.98
70302;BME280;57706;56.326;43.882;2023-03-08T08:31:30;99849.53;;;27.90;12.21
70302;BME280;57706;56.326;43.882;2023-03-08T08:33:56;99850.28;;;29.37;11.38
70302;BME280;57706;56.326;43.882;2023-03-08T08:36:22;99851.75;;;26.66;13.34
70302;BME280;57706;56.326;43.882;2023-03-08T08:38:48;99848.72;;;23.50;15.14
70302;BME280;57706;56.326;43.882;2023-03-08T08:41:17;99858.78;;;20.56;17.42
70302;BME280;57706;56.326;43.882;2023-03-08T08:43:45;99865.03;;;18.55;19.31
70302;BME280;57706;56.326;43.882;2023-03-08T08:46:11;99857.16;;;25.20;14.62
70302;BME280;57706;56.326;43.882;2023-03-08T08:48:38;99859.09;;;29.29;12.11
70302;BME280;57706;56.326;43.882;2023-03-08T08:51:05;99858.31;;;26.84;12.69
70302;BME280;57706;56.326;43.882;2023-03-08T08:53:31;99860.63;;;21.07;16.84
70302;BME280;57706;56.326;43.882;2023-03-08T08:55:57;99869.47;;;15.45;21.68
70302;BME280;57706;56.326;43.882;2023-03-08T08:58:24;99865.63;;;14.32;23.73
70302;BME280;57706;56.326;43.882;2023-03-08T09:00:50;99881.63;;;13.40;24.95
70302;BME280;57706;56.326;43.882;2023-03-08T09:03:16;99874.75;;;12.23;26.29
70302;BME280;57706;56.326;43.882;2023-03-08T09:05:43;99873.59;;;11.96;26.91
70302;BME280;57706;56.326;43.882;2023-03-08T09:08:10;99873.22;;;11.99;27.30
70302;BME280;57706;56.326;43.882;2023-03-08T09:10:37;99873.44;;;11.82;27.29
70302;BME280;57706;56.326;43.882;2023-03-08T09:13:04;99879.22;;;12.23;26.95
70302;BME280;57706;56.326;43.882;2023-03-08T09:15:30;99873.78;;;12.46;26.90
70302;BME280;57706;56.326;43.882;2023-03-08T09:17:56;99872.19;;;11.48;28.04
70302;BME280;57706;56.326;43.882;2023-03-08T09:20:22;99863.44;;;10.01;30.57
70302;BME280;57706;56.326;43.882;2023-03-08T09:22:48;99851.75;;;9.72;31.19
70302;BME280;57706;56.326;43.882;2023-03-08T09:25:14;99857.97;;;9.71;31.23
70302;BME280;57706;56.326;43.882;2023-03-08T09:27:41;99859.63;;;9.63;31.50
70302;BME280;57706;56.326;43.882;2023-03-08T09:30:12;99864.69;;;11.07;29.75
70302;BME280;57706;56.326;43.882;2023-03-08T09:32:39;99848.56;;;15.89;24.39
70302;BME280;57706;56.326;43.882;2023-03-08T09:35:05;99850.00;;;21.12;19.11
70302;BME280;57706;56.326;43.882;2023-03-08T09:37:31;99844.28;;;25.78;14.90
70302;BME280;57706;56.326;43.882;2023-03-08T09:39:57;99837.47;;;29.29;12.14
70302;BME280;57706;56.326;43.882;2023-03-08T09:42:26;99840.31;;;31.07;11.43
70302;BME280;57706;56.326;43.882;2023-03-08T09:45:22;99842.53;;;32.81;10.03
70302;BME280;57706;56.326;43.882;2023-03-08T09:48:11;99837.09;;;31.45;9.77
70302;BME280;57706;56.326;43.882;2023-03-08T09:50:46;99826.03;;;29.32;11.74
70302;BME280;57706;56.326;43.882;2023-03-08T09:56:19;99813.94;;;20.58;17.49
70302;BME280;57706;56.326;43.882;2023-03-08T09:58:53;99833.69;;;17.10;20.58
70302;BME280;57706;56.326;43.882;2023-03-08T10:06:52;99824.19;;;28.57;12.36
70302;BME280;57706;56.326;43.882;2023-03-08T10:09:24;99832.63;;;29.54;10.52
70302;BME280;57706;56.326;43.882;2023-03-08T10:15:07;99853.66;;;21.90;15.93
70302;BME280;57706;56.326;43.882;2023-03-08T10:17:43;99852.16;;;22.27;15.46
70302;BME280;57706;56.326;43.882;2023-03-08T10:20:16;99860.16;;;24.15;14.79
70302;BME280;57706;56.326;43.882;2023-03-08T10:22:44;99864.22;;;24.33;14.12
70302;BME280;57706;56.326;43.882;2023-03-08T10:25:24;99863.66;;;22.93;15.46
70302;BME280;57706;56.326;43.882;2023-03-08T10:27:55;99856.88;;;19.81;18.09
70302;BME280;57706;56.326;43.882;2023-03-08T10:30:24;99858.56;;;18.75;19.34
70302;BME280;57706;56.326;43.882;2023-03-08T10:32:54;99848.16;;;21.35;17.58
70302;BME280;57706;56.326;43.882;2023-03-08T10:35:37;99843.09;;;21.56;17.00
70302;BME280;57706;56.326;43.882;2023-03-08T10:38:15;99851.97;;;23.09;15.98
70302;BME280;57706;56.326;43.882;2023-03-08T10:40:42;99854.88;;;23.51;15.37
70302;BME280;57706;56.326;43.882;2023-03-08T10:43:17;99840.66;;;23.02;16.33
70302;BME280;57706;56.326;43.882;2023-03-08T10:45:44;99838.25;;;18.38;19.72
70302;BME280;57706;56.326;43.882;2023-03-08T10:48:19;99850.47;;;17.47;20.89
70302;BME280;57706;56.326;43.882;2023-03-08T10:50:57;99853.97;;;19.95;18.59
70302;BME280;57706;56.326;43.882;2023-03-08T10:53:24;99853.00;;;18.10;19.61
70302;BME280;57706;56.326;43.882;2023-03-08T10:55:54;99859.69;;;16.11;22.34
70302;BME280;57706;56.326;43.882;2023-03-08T11:00:54;99858.56;;;15.80;22.56
70302;BME280;57706;56.326;43.882;2023-03-08T11:03:22;99860.53;;;18.56;20.22
70302;BME280;57706;56.326;43.882;2023-03-08T11:08:22;99859.75;;;21.01;17.55
70302;BME280;57706;56.326;43.882;2023-03-08T11:13:33;99868.94;;;15.02;21.96
70302;BME280;57706;56.326;43.882;2023-03-08T11:21:52;99855.91;;;14.94;23.45
70302;BME280;57706;56.326;43.882;2023-03-08T11:24:25;99854.16;;;14.05;24.66
70302;BME280;57706;56.326;43.882;2023-03-08T11:27:14;99856.03;;;15.53;23.23
70302;BME280;57706;56.326;43.882;2023-03-08T11:35:15;99862.78;;;16.08;22.57
70302;BME280;57706;56.326;43.882;2023-03-08T11:40:41;99866.91;;;13.53;26.16
70302;BME280;57706;56.326;43.882;2023-03-08T11:57:57;99839.56;;;14.29;24.98
70302;BME280;57706;56.326;43.882;2023-03-08T12:00:37;99832.06;;;12.50;27.78
70302;BME280;57706;56.326;43.882;2023-03-08T12:03:19;99832.44;;;12.69;27.37
70302;BME280;57706;56.326;43.882;2023-03-08T12:05:53;99832.31;;;13.41;26.43
70302;BME280;57706;56.326;43.882;2023-03-08T12:08:24;99830.81;;;13.25;26.05
70302;BME280;57706;56.326;43.882;2023-03-08T12:10:56;99810.16;;;13.00;26.67
70302;BME280;57706;56.326;43.882;2023-03-08T12:13:31;99804.78;;;12.86;27.37
70302;BME280;57706;56.326;43.882;2023-03-08T12:26:37;99771.81;;;10.91;29.32
70302;BME280;57706;56.326;43.882;2023-03-08T12:29:08;99772.34;;;10.25;30.55
70302;BME280;57706;56.326;43.882;2023-03-08T12:31:40;99766.03;;;9.07;32.68
70302;BME280;57706;56.326;43.882;2023-03-08T12:36:49;99756.78;;;8.22;34.23
70302;BME280;57706;56.326;43.882;2023-03-08T12:39:28;99756.91;;;7.95;35.15
70302;BME280;57706;56.326;43.882;2023-03-08T12:44:35;99754.09;;;7.37;36.21
70302;BME280;57706;56.326;43.882;2023-03-08T12:47:18;99761.59;;;6.71;37.12
70302;BME280;57706;56.326;43.882;2023-03-08T12:49:49;99768.69;;;6.24;37.56
70302;BME280;57706;56.326;43.882;2023-03-08T12:55:00;99773.00;;;5.41;38.58
70302;BME280;57706;56.326;43.882;2023-03-08T12:57:37;99771.44;;;5.76;37.69
70302;BME280;57706;56.326;43.882;2023-03-08T13:03:24;99768.47;;;5.71;37.71
70302;BME280;57706;56.326;43.882;2023-03-08T13:05:50;99755.53;;;5.23;38.48
70302;BME280;57706;56.326;43.882;2023-03-08T13:08:30;99749.50;;;4.75;39.69
70302;BME280;57706;56.326;43.882;2023-03-08T13:16:31;99754.63;;;5.43;38.83
70302;BME280;57706;56.326;43.882;2023-03-08T13:21:39;99737.69;;;4.91;40.05
70302;BME280;57706;56.326;43.882;2023-03-08T13:24:18;99740.06;;;4.64;41.01
70302;BME280;57706;56.326;43.882;2023-03-08T13:29:42;99738.84;;;4.09;43.14
70302;BME280;57706;56.326;43.882;2023-03-08T13:32:17;99738.97;;;3.68;44.70
70302;BME280;57706;56.326;43.882;2023-03-08T13:34:44;99734.25;;;2.59;47.90
70302;BME280;57706;56.326;43.882;2023-03-08T13:37:25;99726.34;;;2.39;48.54
70302;BME280;57706;56.326;43.882;2023-03-08T13:39:53;99727.88;;;2.63;48.41
70302;BME280;57706;56.326;43.882;2023-03-08T13:42:20;99718.09;;;2.34;48.72
70302;BME280;57706;56.326;43.882;2023-03-08T13:45:04;99720.28;;;2.17;49.50
70302;BME280;57706;56.326;43.882;2023-03-08T13:47:33;99736.22;;;1.69;51.39
70302;BME280;57706;56.326;43.882;2023-03-08T13:50:00;99724.00;;;1.59;51.67
70302;BME280;57706;56.326;43.882;2023-03-08T13:52:30;99723.09;;;1.26;52.95
70302;BME280;57706;56.326;43.882;2023-03-08T13:54:59;99728.75;;;1.31;53.10
70302;BME280;57706;56.326;43.882;2023-03-08T13:57:28;99714.03;;;0.98;53.78
70302;BME280;57706;56.326;43.882;2023-03-08T13:59:57;99722.16;;;1.16;53.60
70302;BME280;57706;56.326;43.882;2023-03-08T14:02:26;99715.56;;;0.89;54.18
70302;BME280;57706;56.326;43.882;2023-03-08T14:04:52;99720.34;;;0.71;55.12
70302;BME280;57706;56.326;43.882;2023-03-08T14:07:27;99730.72;;;0.35;56.55
70302;BME280;57706;56.326;43.882;2023-03-08T14:09:54;99722.72;;;0.26;56.08
70302;BME280;57706;56.326;43.882;2023-03-08T14:12:24;99707.75;;;0.54;55.35
70302;BME280;57706;56.326;43.882;2023-03-08T14:14:54;99707.78;;;0.66;54.03
70302;BME280;57706;56.326;43.882;2023-03-08T14:17:24;99702.53;;;0.32;54.74
70302;BME280;57706;56.326;43.882;2023-03-08T14:19:53;99693.31;;;0.16;56.50
70302;BME280;57706;56.326;43.882;2023-03-08T14:22:21;99688.81;;;0.07;56.45
70302;BME280;57706;56.326;43.882;2023-03-08T14:24:50;99680.03;;;-0.15;56.94
70302;BME280;57706;56.326;43.882;2023-03-08T14:29:44;99684.31;;;-0.03;56.60
70302;BME280;57706;56.326;43.882;2023-03-08T14:34:47;99671.88;;;-0.46;58.46